sensor_id;sensor_type;location;lat;lon;timestamp;temperature;humidity
23609;DHT22;11982;50.810;4.442;2023-07-13T00:00:00;15.40;99.90
23609;DHT22;11982;50.810;4.442;2023-07-13T00:02:26;15.40;99.90
23609;DHT22;11982;50.810;4.442;2023-07-13T00:04:52;15.40;99.90
23609;DHT22;11982;50.810;4.442;2023-07-13T00:07:18;15.30;99.90
23609;DHT22;11982;50.810;4.442;2023-07-13T00:09:47;15.30;99.90
23609;DHT22;11982;50.810;4.442;2023-07-13T00:12:27;15.30;99.90
23609;DHT22;11982;50.810;4.442;2023-07-13T00:14:56;15.30;99.90
23609;DHT22;11982;50.810;4.442;2023-07-13T00:17:22;15.30;99.90
23609;DHT22;11982;50.810;4.442;2023-07-13T00:19:47;15.20;99.90
23609;DHT22;11982;50.810;4.442;2023-07-13T00:22:13;15.20;99.90
23609;DHT22;11982;50.810;4.442;2023-07-13T00:24:39;15.10;99.90
23609;DHT22;11982;50.810;4.442;2023-07-13T00:27:11;15.10;99.90
23609;DHT22;11982;50.810;4.442;2023-07-13T00:29:37;15.10;99.90
23609;DHT22;11982;50.810;4.442;2023-07-13T00:32:06;15.10;99.90
23609;DHT22;11982;50.810;4.442;2023-07-13T00:34:34;15.10;99.90
23609;DHT22;11982;50.810;4.442;2023-07-13T00:37:00;15.00;99.90
23609;DHT22;11982;50.810;4.442;2023-07-13T00:39:26;15.00;99.90
23609;DHT22;11982;50.810;4.442;2023-07-13T00:41:52;14.90;99.90
23609;DHT22;11982;50.810;4.442;2023-07-13T00:44:19;14.90;99.90
23609;DHT22;11982;50.810;4.442;2023-07-13T00:46:46;14.90;99.90
23609;DHT22;11982;50.810;4.442;2023-07-13T00:49:15;14.90;99.90
23609;DHT22;11982;50.810;4.442;2023-07-13T00:51:53;14.90;99.90
23609;DHT22;11982;50.810;4.442;2023-07-13T00:54:46;14.80;99.90
23609;DHT22;11982;50.810;4.442;2023-07-13T00:57:18;14.80;99.90
23609;DHT22;11982;50.810;4.442;2023-07-13T00:59:50;14.80;99.90
23609;DHT22;11982;50.810;4.442;2023-07-13T01:02:17;14.80;99.90
23609;DHT22;11982;50.810;4.442;2023-07-13T01:04:43;14.80;99.90
23609;DHT22;11982;50.810;4.442;2023-07-13T01:07:10;14.80;99.90
23609;DHT22;11982;50.810;4.442;2023-07-13T01:09:37;14.70;99.90
23609;DHT22;11982;50.810;4.442;2023-07-13T01:12:03;14.70;99.90
23609;DHT22;11982;50.810;4.442;2023-07-13T01:14:29;14.60;99.90
23609;DHT22;11982;50.810;4.442;2023-07-13T01:16:55;14.70;99.90
23609;DHT22;11982;50.810;4.442;2023-07-13T01:19:38;14.60;99.90
23609;DHT22;11982;50.810;4.442;2023-07-13T01:22:11;14.60;99.90
23609;DHT22;11982;50.810;4.442;2023-07-13T01:24:38;14.60;99.90
23609;DHT22;11982;50.810;4.442;2023-07-13T01:27:06;14.50;99.90
23609;DHT22;11982;50.810;4.442;2023-07-13T01:29:33;14.50;99.90
23609;DHT22;11982;50.810;4.442;2023-07-13T01:31:59;14.50;99.90
23609;DHT22;11982;50.810;4.442;2023-07-13T01:34:27;14.50;99.90
23609;DHT22;11982;50.810;4.442;2023-07-13T01:36:53;14.50;99.90
23609;DHT22;11982;50.810;4.442;2023-07-13T01:39:21;14.50;99.90
23609;DHT22;11982;50.810;4.442;2023-07-13T01:41:47;14.50;99.90
23609;DHT22;11982;50.810;4.442;2023-07-13T01:44:13;14.40;99.90
23609;DHT22;11982;50.810;4.442;2023-07-13T01:46:39;14.40;99.90
23609;DHT22;11982;50.810;4.442;2023-07-13T01:49:05;14.40;99.90
23609;DHT22;11982;50.810;4.442;2023-07-13T01:51:31;14.40;99.90
23609;DHT22;11982;50.810;4.442;2023-07-13T01:53:56;14.40;99.90
23609;DHT22;11982;50.810;4.442;2023-07-13T01:56:22;14.40;99.90
23609;DHT22;11982;50.810;4.442;2023-07-13T01:58:48;14.30;99.90
23609;DHT22;11982;50.810;4.442;2023-07-13T02:01:13;14.30;99.90
23609;DHT22;11982;50.810;4.442;2023-07-13T02:03:39;14.30;99.90
23609;DHT22;11982;50.810;4.442;2023-07-13T02:06:05;14.40;99.90
23609;DHT22;11982;50.810;4.442;2023-07-13T02:08:33;14.30;99.90
23609;DHT22;11982;50.810;4.442;2023-07-13T02:10:59;14.30;99.90
23609;DHT22;11982;50.810;4.442;2023-07-13T02:13:24;14.30;99.90
23609;DHT22;11982;50.810;4.442;2023-07-13T02:15:51;14.30;99.90
23609;DHT22;11982;50.810;4.442;2023-07-13T02:18:17;14.30;99.90
23609;DHT22;11982;50.810;4.442;2023-07-13T02:20:43;14.30;99.90
23609;DHT22;11982;50.810;4.442;2023-07-13T02:23:09;14.30;99.90
23609;DHT22;11982;50.810;4.442;2023-07-13T02:25:35;14.30;99.90
23609;DHT22;11982;50.810;4.442;2023-07-13T02:28:00;14.30;99.90
23609;DHT22;11982;50.810;4.442;2023-07-13T02:30:27;14.20;99.90
23609;DHT22;11982;50.810;4.442;2023-07-13T02:32:56;14.20;99.90
23609;DHT22;11982;50.810;4.442;2023-07-13T02:35:22;14.20;99.90
23609;DHT22;11982;50.810;4.442;2023-07-13T02:37:47;14.20;99.90
23609;DHT22;11982;50.810;4.442;2023-07-13T02:40:13;14.20;99.90
23609;DHT22;11982;50.810;4.442;2023-07-13T02:42:39;14.10;99.90
23609;DHT22;11982;50.810;4.442;2023-07-13T02:45:06;14.10;99.90
23609;DHT22;11982;50.810;4.442;2023-07-13T02:47:32;14.10;99.90
23609;DHT22;11982;50.810;4.442;2023-07-13T02:49:58;14.20;99.90
23609;DHT22;11982;50.810;4.442;2023-07-13T02:52:24;14.20;99.90
23609;DHT22;11982;50.810;4.442;2023-07-13T02:54:50;14.10;99.90
23609;DHT22;11982;50.810;4.442;2023-07-13T02:57:16;14.10;99.90
23609;DHT22;11982;50.810;4.442;2023-07-13T02:59:42;14.10;99.90
23609;DHT22;11982;50.810;4.442;2023-07-13T03:02:07;14.10;99.90
23609;DHT22;11982;50.810;4.442;2023-07-13T03:04:36;14.00;99.90
23609;DHT22;11982;50.810;4.442;2023-07-13T03:07:02;14.00;99.90
23609;DHT22;11982;50.810;4.442;2023-07-13T03:09:28;14.10;99.90
23609;DHT22;11982;50.810;4.442;2023-07-13T03:11:54;14.00;99.90
23609;DHT22;11982;50.810;4.442;2023-07-13T03:14:21;14.00;99.90
23609;DHT22;11982;50.810;4.442;2023-07-13T03:16:47;14.00;99.90
23609;DHT22;11982;50.810;4.442;2023-07-13T03:19:13;14.00;99.90
23609;DHT22;11982;50.810;4.442;2023-07-13T03:21:39;14.00;99.90
23609;DHT22;11982;50.810;4.442;2023-07-13T03:24:05;14.00;99.90
23609;DHT22;11982;50.810;4.442;2023-07-13T03:26:30;14.00;99.90
23609;DHT22;11982;50.810;4.442;2023-07-13T03:28:57;14.00;99.90
23609;DHT22;11982;50.810;4.442;2023-07-13T03:31:26;13.90;99.90
23609;DHT22;11982;50.810;4.442;2023-07-13T03:33:54;14.00;99.90
23609;DHT22;11982;50.810;4.442;2023-07-13T03:36:24;14.00;99.90
23609;DHT22;11982;50.810;4.442;2023-07-13T03:38:53;14.00;99.90
23609;DHT22;11982;50.810;4.442;2023-07-13T03:41:20;14.00;99.90
23609;DHT22;11982;50.810;4.442;2023-07-13T03:43:46;14.00;99.90
23609;DHT22;11982;50.810;4.442;2023-07-13T03:46:13;14.00;99.90
23609;DHT22;11982;50.810;4.442;2023-07-13T03:48:40;14.00;99.90
23609;DHT22;11982;50.810;4.442;2023-07-13T03:51:08;14.00;99.90
23609;DHT22;11982;50.810;4.442;2023-07-13T03:53:37;14.00;99.90
23609;DHT22;11982;50.810;4.442;2023-07-13T03:56:03;14.10;99.90
23609;DHT22;11982;50.810;4.442;2023-07-13T03:58:31;14.20;99.90
23609;DHT22;11982;50.810;4.442;2023-07-13T04:00:58;14.20;99.90
23609;DHT22;11982;50.810;4.442;2023-07-13T04:03:24;14.30;99.90
23609;DHT22;11982;50.810;4.442;2023-07-13T04:05:50;14.40;99.90
23609;DHT22;11982;50.810;4.442;2023-07-13T04:08:16;14.40;99.90
23609;DHT22;11982;50.810;4.442;2023-07-13T04:10:42;14.50;99.90
23609;DHT22;11982;50.810;4.442;2023-07-13T04:13:08;14.50;99.90
23609;DHT22;11982;50.810;4.442;2023-07-13T04:15:34;14.70;99.90
23609;DHT22;11982;50.810;4.442;2023-07-13T04:18:00;14.70;99.90
23609;DHT22;11982;50.810;4.442;2023-07-13T04:20:26;14.70;99.90
23609;DHT22;11982;50.810;4.442;2023-07-13T04:22:52;14.80;99.90
23609;DHT22;11982;50.810;4.442;2023-07-13T04:25:21;14.80;99.90
23609;DHT22;11982;50.810;4.442;2023-07-13T04:27:47;14.90;99.90
23609;DHT22;11982;50.810;4.442;2023-07-13T04:30:12;14.90;99.90
23609;DHT22;11982;50.810;4.442;2023-07-13T04:32:38;15.00;99.90
23609;DHT22;11982;50.810;4.442;2023-07-13T04:35:04;15.10;99.90
23609;DHT22;11982;50.810;4.442;2023-07-13T04:37:30;15.00;99.90
23609;DHT22;11982;50.810;4.442;2023-07-13T04:39:56;15.10;99.90
23609;DHT22;11982;50.810;4.442;2023-07-13T04:42:22;15.10;99.90
23609;DHT22;11982;50.810;4.442;2023-07-13T04:44:51;15.10;99.90
23609;DHT22;11982;50.810;4.442;2023-07-13T04:47:17;15.20;99.90
23609;DHT22;11982;50.810;4.442;2023-07-13T04:49:44;15.20;99.90
23609;DHT22;11982;50.810;4.442;2023-07-13T04:52:10;15.30;99.90
23609;DHT22;11982;50.810;4.442;2023-07-13T04:54:36;15.30;99.90
23609;DHT22;11982;50.810;4.442;2023-07-13T04:57:03;15.30;99.90
23609;DHT22;11982;50.810;4.442;2023-07-13T04:59:32;15.40;99.90
23609;DHT22;11982;50.810;4.442;2023-07-13T05:01:57;15.40;99.90
23609;DHT22;11982;50.810;4.442;2023-07-13T05:04:23;15.40;99.90
23609;DHT22;11982;50.810;4.442;2023-07-13T05:06:49;15.40;99.90
23609;DHT22;11982;50.810;4.442;2023-07-13T05:09:14;15.40;99.90
23609;DHT22;11982;50.810;4.442;2023-07-13T05:11:40;15.40;99.90
23609;DHT22;11982;50.810;4.442;2023-07-13T05:14:06;15.40;99.90
23609;DHT22;11982;50.810;4.442;2023-07-13T05:16:32;15.50;99.90
23609;DHT22;11982;50.810;4.442;2023-07-13T05:18:58;15.60;99.90
23609;DHT22;11982;50.810;4.442;2023-07-13T05:21:24;15.60;99.90
23609;DHT22;11982;50.810;4.442;2023-07-13T05:23:50;15.60;99.90
23609;DHT22;11982;50.810;4.442;2023-07-13T05:26:15;15.60;99.90
23609;DHT22;11982;50.810;4.442;2023-07-13T05:28:41;15.60;99.90
23609;DHT22;11982;50.810;4.442;2023-07-13T05:31:09;15.70;99.90
23609;DHT22;11982;50.810;4.442;2023-07-13T05:33:35;15.80;99.90
23609;DHT22;11982;50.810;4.442;2023-07-13T05:36:01;15.80;99.90
23609;DHT22;11982;50.810;4.442;2023-07-13T05:38:27;16.00;99.90
23609;DHT22;11982;50.810;4.442;2023-07-13T05:40:54;16.00;99.90
23609;DHT22;11982;50.810;4.442;2023-07-13T05:43:21;16.10;99.90
23609;DHT22;11982;50.810;4.442;2023-07-13T05:45:48;16.00;99.90
23609;DHT22;11982;50.810;4.442;2023-07-13T05:48:14;16.10;99.90
23609;DHT22;11982;50.810;4.442;2023-07-13T05:50:40;16.30;99.90
23609;DHT22;11982;50.810;4.442;2023-07-13T05:53:06;16.30;99.90
23609;DHT22;11982;50.810;4.442;2023-07-13T05:55:32;16.40;99.90
23609;DHT22;11982;50.810;4.442;2023-07-13T05:57:58;16.30;99.90
23609;DHT22;11982;50.810;4.442;2023-07-13T06:00:24;16.40;99.90
23609;DHT22;11982;50.810;4.442;2023-07-13T06:02:50;16.50;99.90
23609;DHT22;11982;50.810;4.442;2023-07-13T06:05:16;16.60;99.90
23609;DHT22;11982;50.810;4.442;2023-07-13T06:07:42;16.60;99.90
23609;DHT22;11982;50.810;4.442;2023-07-13T06:10:08;16.50;99.90
23609;DHT22;11982;50.810;4.442;2023-07-13T06:12:34;16.60;99.90
23609;DHT22;11982;50.810;4.442;2023-07-13T06:15:00;16.70;99.90
23609;DHT22;11982;50.810;4.442;2023-07-13T06:17:25;16.60;99.90
23609;DHT22;11982;50.810;4.442;2023-07-13T06:19:51;16.70;99.90
23609;DHT22;11982;50.810;4.442;2023-07-13T06:22:17;16.80;99.90
23609;DHT22;11982;50.810;4.442;2023-07-13T06:24:42;16.80;99.90
23609;DHT22;11982;50.810;4.442;2023-07-13T06:27:09;16.70;99.90
23609;DHT22;11982;50.810;4.442;2023-07-13T06:32:26;16.90;99.90
23609;DHT22;11982;50.810;4.442;2023-07-13T06:34:51;17.00;99.90
23609;DHT22;11982;50.810;4.442;2023-07-13T06:37:18;17.00;99.90
23609;DHT22;11982;50.810;4.442;2023-07-13T06:39:43;17.10;99.90
23609;DHT22;11982;50.810;4.442;2023-07-13T06:42:09;17.10;99.90
23609;DHT22;11982;50.810;4.442;2023-07-13T06:44:36;17.10;99.90
23609;DHT22;11982;50.810;4.442;2023-07-13T06:47:02;17.20;99.90
23609;DHT22;11982;50.810;4.442;2023-07-13T06:49:28;17.40;99.90
23609;DHT22;11982;50.810;4.442;2023-07-13T06:51:54;17.60;99.90
23609;DHT22;11982;50.810;4.442;2023-07-13T06:54:19;17.60;99.90
23609;DHT22;11982;50.810;4.442;2023-07-13T06:56:45;17.70;99.90
23609;DHT22;11982;50.810;4.442;2023-07-13T06:59:11;17.70;99.90
23609;DHT22;11982;50.810;4.442;2023-07-13T07:01:37;17.80;99.90
23609;DHT22;11982;50.810;4.442;2023-07-13T07:04:03;18.10;99.90
23609;DHT22;11982;50.810;4.442;2023-07-13T07:06:29;18.00;99.90
23609;DHT22;11982;50.810;4.442;2023-07-13T07:08:55;18.20;99.90
23609;DHT22;11982;50.810;4.442;2023-07-13T07:11:25;18.30;99.90
23609;DHT22;11982;50.810;4.442;2023-07-13T07:13:52;18.20;99.90
23609;DHT22;11982;50.810;4.442;2023-07-13T07:16:18;18.30;99.90
23609;DHT22;11982;50.810;4.442;2023-07-13T07:18:44;18.10;99.90
23609;DHT22;11982;50.810;4.442;2023-07-13T07:21:10;18.00;99.90
23609;DHT22;11982;50.810;4.442;2023-07-13T07:23:36;18.10;99.90
23609;DHT22;11982;50.810;4.442;2023-07-13T07:26:02;18.10;99.90
23609;DHT22;11982;50.810;4.442;2023-07-13T07:28:27;18.20;99.90
23609;DHT22;11982;50.810;4.442;2023-07-13T07:30:57;18.30;99.90
23609;DHT22;11982;50.810;4.442;2023-07-13T07:33:24;18.20;99.90
23609;DHT22;11982;50.810;4.442;2023-07-13T07:35:51;18.20;99.90
23609;DHT22;11982;50.810;4.442;2023-07-13T07:38:17;18.20;99.90
23609;DHT22;11982;50.810;4.442;2023-07-13T07:40:43;18.10;99.90
23609;DHT22;11982;50.810;4.442;2023-07-13T07:43:10;18.10;99.90
23609;DHT22;11982;50.810;4.442;2023-07-13T07:45:36;18.20;99.90
23609;DHT22;11982;50.810;4.442;2023-07-13T07:48:04;18.30;99.90
23609;DHT22;11982;50.810;4.442;2023-07-13T07:50:30;18.30;99.90
23609;DHT22;11982;50.810;4.442;2023-07-13T07:52:56;18.10;99.90
23609;DHT22;11982;50.810;4.442;2023-07-13T07:55:22;18.30;99.90
23609;DHT22;11982;50.810;4.442;2023-07-13T07:57:48;18.60;99.90
23609;DHT22;11982;50.810;4.442;2023-07-13T08:00:15;18.60;99.90
23609;DHT22;11982;50.810;4.442;2023-07-13T08:02:41;18.70;99.90
23609;DHT22;11982;50.810;4.442;2023-07-13T08:05:08;18.70;99.90
23609;DHT22;11982;50.810;4.442;2023-07-13T08:07:34;18.70;99.90
23609;DHT22;11982;50.810;4.442;2023-07-13T08:09:59;18.70;99.90
23609;DHT22;11982;50.810;4.442;2023-07-13T08:12:25;18.90;99.90
23609;DHT22;11982;50.810;4.442;2023-07-13T08:14:51;19.10;99.90
23609;DHT22;11982;50.810;4.442;2023-07-13T08:17:23;19.00;99.90
23609;DHT22;11982;50.810;4.442;2023-07-13T08:19:50;18.90;99.90
23609;DHT22;11982;50.810;4.442;2023-07-13T08:22:16;18.60;99.90
23609;DHT22;11982;50.810;4.442;2023-07-13T08:24:42;19.00;99.90
23609;DHT22;11982;50.810;4.442;2023-07-13T08:27:08;19.40;99.90
23609;DHT22;11982;50.810;4.442;2023-07-13T08:29:34;19.30;99.90
23609;DHT22;11982;50.810;4.442;2023-07-13T08:32:00;19.10;99.90
23609;DHT22;11982;50.810;4.442;2023-07-13T08:34:26;19.20;99.90
23609;DHT22;11982;50.810;4.442;2023-07-13T08:36:52;19.40;99.90
23609;DHT22;11982;50.810;4.442;2023-07-13T08:39:17;19.80;99.90
23609;DHT22;11982;50.810;4.442;2023-07-13T08:41:46;20.00;99.90
23609;DHT22;11982;50.810;4.442;2023-07-13T08:45:14;20.20;99.90
23609;DHT22;11982;50.810;4.442;2023-07-13T08:47:21;20.30;99.90
23609;DHT22;11982;50.810;4.442;2023-07-13T08:49:47;20.00;99.90
23609;DHT22;11982;50.810;4.442;2023-07-13T08:52:40;19.70;99.90
23609;DHT22;11982;50.810;4.442;2023-07-13T08:55:14;20.10;99.90
23609;DHT22;11982;50.810;4.442;2023-07-13T08:57:42;20.10;99.90
23609;DHT22;11982;50.810;4.442;2023-07-13T09:00:14;19.90;99.90
23609;DHT22;11982;50.810;4.442;2023-07-13T09:03:01;19.80;99.90
23609;DHT22;11982;50.810;4.442;2023-07-13T09:05:40;19.90;99.90
23609;DHT22;11982;50.810;4.442;2023-07-13T09:10:44;20.20;99.90
23609;DHT22;11982;50.810;4.442;2023-07-13T09:13:40;20.00;99.90
23609;DHT22;11982;50.810;4.442;2023-07-13T09:16:10;20.20;99.90
23609;DHT22;11982;50.810;4.442;2023-07-13T09:23:41;20.40;99.90
23609;DHT22;11982;50.810;4.442;2023-07-13T09:26:16;20.60;99.90
23609;DHT22;11982;50.810;4.442;2023-07-13T09:28:46;20.70;99.90
23609;DHT22;11982;50.810;4.442;2023-07-13T09:31:42;20.60;99.90
23609;DHT22;11982;50.810;4.442;2023-07-13T09:34:10;20.80;99.90
23609;DHT22;11982;50.810;4.442;2023-07-13T09:36:36;20.80;99.90
23609;DHT22;11982;50.810;4.442;2023-07-13T09:39:12;21.00;99.90
23609;DHT22;11982;50.810;4.442;2023-07-13T09:42:01;21.20;99.90
23609;DHT22;11982;50.810;4.442;2023-07-13T09:44:36;21.20;99.90
23609;DHT22;11982;50.810;4.442;2023-07-13T09:47:03;21.10;99.90
23609;DHT22;11982;50.810;4.442;2023-07-13T09:49:37;21.00;99.90
23609;DHT22;11982;50.810;4.442;2023-07-13T09:52:05;21.10;99.90
23609;DHT22;11982;50.810;4.442;2023-07-13T09:54:34;21.00;99.90
23609;DHT22;11982;50.810;4.442;2023-07-13T09:57:01;21.00;99.90
23609;DHT22;11982;50.810;4.442;2023-07-13T09:59:32;20.70;99.90
23609;DHT22;11982;50.810;4.442;2023-07-13T10:01:58;21.00;99.90
23609;DHT22;11982;50.810;4.442;2023-07-13T10:04:32;20.80;99.90
23609;DHT22;11982;50.810;4.442;2023-07-13T10:07:06;20.70;99.90
23609;DHT22;11982;50.810;4.442;2023-07-13T10:09:59;20.90;99.90
23609;DHT22;11982;50.810;4.442;2023-07-13T10:12:36;21.10;99.90
23609;DHT22;11982;50.810;4.442;2023-07-13T10:15:03;20.80;99.90
23609;DHT22;11982;50.810;4.442;2023-07-13T10:17:35;20.60;99.90
23609;DHT22;11982;50.810;4.442;2023-07-13T10:20:03;20.60;99.90
23609;DHT22;11982;50.810;4.442;2023-07-13T10:24:57;21.10;99.90
23609;DHT22;11982;50.810;4.442;2023-07-13T10:27:37;21.50;99.90
23609;DHT22;11982;50.810;4.442;2023-07-13T10:30:23;21.10;99.90
23609;DHT22;11982;50.810;4.442;2023-07-13T10:32:52;21.20;99.90
23609;DHT22;11982;50.810;4.442;2023-07-13T10:35:22;21.50;99.90
23609;DHT22;11982;50.810;4.442;2023-07-13T10:38:06;21.70;99.90
23609;DHT22;11982;50.810;4.442;2023-07-13T10:40:50;21.90;99.90
23609;DHT22;11982;50.810;4.442;2023-07-13T10:43:34;21.90;99.90
23609;DHT22;11982;50.810;4.442;2023-07-13T10:46:04;22.20;99.90
23609;DHT22;11982;50.810;4.442;2023-07-13T10:48:31;22.10;99.90
23609;DHT22;11982;50.810;4.442;2023-07-13T10:51:00;22.30;99.90
23609;DHT22;11982;50.810;4.442;2023-07-13T10:53:36;22.20;99.90
23609;DHT22;11982;50.810;4.442;2023-07-13T10:58:46;21.80;99.90
23609;DHT22;11982;50.810;4.442;2023-07-13T11:01:16;21.50;99.90
23609;DHT22;11982;50.810;4.442;2023-07-13T11:03:59;21.80;99.90
23609;DHT22;11982;50.810;4.442;2023-07-13T11:06:37;22.30;99.90
23609;DHT22;11982;50.810;4.442;2023-07-13T11:09:35;22.50;99.90
23609;DHT22;11982;50.810;4.442;2023-07-13T11:21:17;22.70;99.90
23609;DHT22;11982;50.810;4.442;2023-07-13T11:23:45;22.40;99.90
23609;DHT22;11982;50.810;4.442;2023-07-13T11:32:00;22.40;99.90
23609;DHT22;11982;50.810;4.442;2023-07-13T11:34:38;22.60;99.90
23609;DHT22;11982;50.810;4.442;2023-07-13T11:37:10;22.80;99.90
23609;DHT22;11982;50.810;4.442;2023-07-13T11:39:42;22.60;99.90
23609;DHT22;11982;50.810;4.442;2023-07-13T11:42:12;22.90;99.90
23609;DHT22;11982;50.810;4.442;2023-07-13T11:44:49;22.60;99.90
23609;DHT22;11982;50.810;4.442;2023-07-13T11:47:20;22.70;99.90
23609;DHT22;11982;50.810;4.442;2023-07-13T11:49:55;22.50;99.90
23609;DHT22;11982;50.810;4.442;2023-07-13T11:52:34;22.10;99.90
23609;DHT22;11982;50.810;4.442;2023-07-13T11:58:19;22.40;99.90
23609;DHT22;11982;50.810;4.442;2023-07-13T12:00:46;22.20;99.90
23609;DHT22;11982;50.810;4.442;2023-07-13T12:03:21;22.20;99.90
23609;DHT22;11982;50.810;4.442;2023-07-13T12:08:40;21.90;99.90
23609;DHT22;11982;50.810;4.442;2023-07-13T12:11:15;22.00;99.90
23609;DHT22;11982;50.810;4.442;2023-07-13T12:13:44;21.90;99.90
23609;DHT22;11982;50.810;4.442;2023-07-13T12:16:32;21.70;99.90
23609;DHT22;11982;50.810;4.442;2023-07-13T12:19:00;21.80;99.90
23609;DHT22;11982;50.810;4.442;2023-07-13T12:21:33;22.00;99.90
23609;DHT22;11982;50.810;4.442;2023-07-13T12:24:00;21.80;99.90
23609;DHT22;11982;50.810;4.442;2023-07-13T12:26:30;21.80;99.90
23609;DHT22;11982;50.810;4.442;2023-07-13T12:28:59;21.80;99.90
23609;DHT22;11982;50.810;4.442;2023-07-13T12:31:48;22.10;99.90
23609;DHT22;11982;50.810;4.442;2023-07-13T12:34:16;22.50;99.90
23609;DHT22;11982;50.810;4.442;2023-07-13T12:36:54;22.60;99.90
23609;DHT22;11982;50.810;4.442;2023-07-13T12:39:37;22.30;99.90
23609;DHT22;11982;50.810;4.442;2023-07-13T12:42:24;21.70;99.90
23609;DHT22;11982;50.810;4.442;2023-07-13T12:45:02;21.60;99.90
23609;DHT22;11982;50.810;4.442;2023-07-13T12:47:29;21.60;99.90
23609;DHT22;11982;50.810;4.442;2023-07-13T12:49:57;21.30;99.90
23609;DHT22;11982;50.810;4.442;2023-07-13T12:52:34;20.90;99.90
23609;DHT22;11982;50.810;4.442;2023-07-13T12:55:26;20.40;99.90
23609;DHT22;11982;50.810;4.442;2023-07-13T12:57:56;19.80;99.90
23609;DHT22;11982;50.810;4.442;2023-07-13T13:00:49;18.70;99.90
23609;DHT22;11982;50.810;4.442;2023-07-13T13:03:38;18.00;99.90
23609;DHT22;11982;50.810;4.442;2023-07-13T13:06:06;17.80;99.90
23609;DHT22;11982;50.810;4.442;2023-07-13T13:08:34;17.80;99.90
23609;DHT22;11982;50.810;4.442;2023-07-13T13:11:01;17.80;99.90
23609;DHT22;11982;50.810;4.442;2023-07-13T13:13:27;17.80;99.90
23609;DHT22;11982;50.810;4.442;2023-07-13T13:16:11;18.20;99.90
23609;DHT22;11982;50.810;4.442;2023-07-13T13:18:37;18.50;99.90
23609;DHT22;11982;50.810;4.442;2023-07-13T13:21:03;19.10;99.90
23609;DHT22;11982;50.810;4.442;2023-07-13T13:23:28;19.70;99.90
23609;DHT22;11982;50.810;4.442;2023-07-13T13:25:54;19.80;99.90
23609;DHT22;11982;50.810;4.442;2023-07-13T13:28:21;20.30;99.90
23609;DHT22;11982;50.810;4.442;2023-07-13T13:30:50;20.30;99.90
23609;DHT22;11982;50.810;4.442;2023-07-13T13:33:19;20.30;99.90
23609;DHT22;11982;50.810;4.442;2023-07-13T13:35:45;20.30;99.90
23609;DHT22;11982;50.810;4.442;2023-07-13T13:38:16;20.40;99.90
23609;DHT22;11982;50.810;4.442;2023-07-13T13:40:44;20.90;99.90
23609;DHT22;11982;50.810;4.442;2023-07-13T13:43:18;21.20;99.90
23609;DHT22;11982;50.810;4.442;2023-07-13T13:45:44;21.50;99.90
23609;DHT22;11982;50.810;4.442;2023-07-13T13:48:19;21.70;99.90
23609;DHT22;11982;50.810;4.442;2023-07-13T13:50:47;22.20;99.90
23609;DHT22;11982;50.810;4.442;2023-07-13T13:53:15;22.60;99.90
23609;DHT22;11982;50.810;4.442;2023-07-13T13:55:41;23.40;99.90
23609;DHT22;11982;50.810;4.442;2023-07-13T13:58:10;23.00;99.90
23609;DHT22;11982;50.810;4.442;2023-07-13T14:00:38;22.80;99.90
23609;DHT22;11982;50.810;4.442;2023-07-13T14:03:04;22.40;99.90
23609;DHT22;11982;50.810;4.442;2023-07-13T14:05:32;22.40;99.90
23609;DHT22;11982;50.810;4.442;2023-07-13T14:07:58;22.40;99.90
23609;DHT22;11982;50.810;4.442;2023-07-13T14:10:25;22.10;99.90
23609;DHT22;11982;50.810;4.442;2023-07-13T14:12:53;21.90;99.90
23609;DHT22;11982;50.810;4.442;2023-07-13T14:15:37;21.90;99.90
23609;DHT22;11982;50.810;4.442;2023-07-13T14:18:02;21.60;99.90
23609;DHT22;11982;50.810;4.442;2023-07-13T14:20:28;21.80;99.90
23609;DHT22;11982;50.810;4.442;2023-07-13T14:22:55;21.90;99.90
23609;DHT22;11982;50.810;4.442;2023-07-13T14:25:21;21.60;99.90
23609;DHT22;11982;50.810;4.442;2023-07-13T14:27:51;21.50;99.90
23609;DHT22;11982;50.810;4.442;2023-07-13T14:30:22;21.30;99.90
23609;DHT22;11982;50.810;4.442;2023-07-13T14:32:48;20.90;99.90
23609;DHT22;11982;50.810;4.442;2023-07-13T14:35:19;20.50;99.90
23609;DHT22;11982;50.810;4.442;2023-07-13T14:37:47;20.20;99.90
23609;DHT22;11982;50.810;4.442;2023-07-13T14:40:28;20.20;99.90
23609;DHT22;11982;50.810;4.442;2023-07-13T14:42:54;20.00;99.90
23609;DHT22;11982;50.810;4.442;2023-07-13T14:45:20;19.90;99.90
23609;DHT22;11982;50.810;4.442;2023-07-13T14:47:46;20.00;99.90
23609;DHT22;11982;50.810;4.442;2023-07-13T14:50:23;20.40;99.90
23609;DHT22;11982;50.810;4.442;2023-07-13T14:52:50;20.80;99.90
23609;DHT22;11982;50.810;4.442;2023-07-13T14:55:19;21.10;99.90
23609;DHT22;11982;50.810;4.442;2023-07-13T14:57:45;21.50;99.90
23609;DHT22;11982;50.810;4.442;2023-07-13T15:00:18;21.40;99.90
23609;DHT22;11982;50.810;4.442;2023-07-13T15:02:53;21.60;99.90
23609;DHT22;11982;50.810;4.442;2023-07-13T15:05:22;21.60;99.90
23609;DHT22;11982;50.810;4.442;2023-07-13T15:07:50;21.80;99.90
23609;DHT22;11982;50.810;4.442;2023-07-13T15:10:19;22.40;99.90
23609;DHT22;11982;50.810;4.442;2023-07-13T15:12:47;23.00;99.90
23609;DHT22;11982;50.810;4.442;2023-07-13T15:15:13;23.60;99.90
23609;DHT22;11982;50.810;4.442;2023-07-13T15:17:41;23.00;99.90
23609;DHT22;11982;50.810;4.442;2023-07-13T15:20:33;23.00;99.90
23609;DHT22;11982;50.810;4.442;2023-07-13T15:23:01;23.30;99.90
23609;DHT22;11982;50.810;4.442;2023-07-13T15:25:29;23.60;99.90
23609;DHT22;11982;50.810;4.442;2023-07-13T15:27:56;24.10;99.90
23609;DHT22;11982;50.810;4.442;2023-07-13T15:30:22;24.60;99.90
23609;DHT22;11982;50.810;4.442;2023-07-13T15:32:49;24.30;99.90
23609;DHT22;11982;50.810;4.442;2023-07-13T15:35:19;24.70;99.90
23609;DHT22;11982;50.810;4.442;2023-07-13T15:37:46;25.40;99.90
23609;DHT22;11982;50.810;4.442;2023-07-13T15:40:13;25.20;99.90
23609;DHT22;11982;50.810;4.442;2023-07-13T15:42:43;25.20;99.90
23609;DHT22;11982;50.810;4.442;2023-07-13T15:45:18;25.50;99.90
23609;DHT22;11982;50.810;4.442;2023-07-13T15:47:46;24.30;99.90
23609;DHT22;11982;50.810;4.442;2023-07-13T15:50:17;23.90;99.90
23609;DHT22;11982;50.810;4.442;2023-07-13T15:52:45;24.10;99.90
23609;DHT22;11982;50.810;4.442;2023-07-13T15:55:13;24.00;99.90
23609;DHT22;11982;50.810;4.442;2023-07-13T15:57:47;23.50;99.90
23609;DHT22;11982;50.810;4.442;2023-07-13T16:00:33;23.40;99.90
23609;DHT22;11982;50.810;4.442;2023-07-13T16:02:59;23.50;99.90
23609;DHT22;11982;50.810;4.442;2023-07-13T16:05:24;23.50;99.90
23609;DHT22;11982;50.810;4.442;2023-07-13T16:07:52;23.70;99.90
23609;DHT22;11982;50.810;4.442;2023-07-13T16:10:34;23.80;99.90
23609;DHT22;11982;50.810;4.442;2023-07-13T16:13:01;23.60;99.90
23609;DHT22;11982;50.810;4.442;2023-07-13T16:15:27;23.20;99.90
23609;DHT22;11982;50.810;4.442;2023-07-13T16:17:53;23.30;99.90